»·PEaware :: DAL2997 KPHX-KSLC

DAL2997 :: KPHX-KSLC

FLIGHT INFORMATION

Flight Status: Arrived
Operator:
Delta Air Lines
More flights by this operator :: More flights under this callsign
Pilot: John C. (18682)
Aircraft: AIRBUS A320
(A320)
More flights by this aircraft type
Origin: KPHX Phoenix Sky Harbor Intl
United States
Destination: KSLC Salt Lake City Intl
United States
More flights between these airports :: More routes between these airports
Route: ZIDOG1 ZIDOG QUAKY SNOBL CARTL LOFTS GCN BCE QWENN5
File this flight plan on PilotEdge
Remarks:
Altitude:
(Current/Filed)
34,000ft
Speed:
(Current/Filed)
430kts
Departed: 02-May-18 03:56 PM
Arrived: 02-May-18 05:11 PM
Distance/Time
Traveled:
441nm/1:14
Distance/Time
To Go:
Arrived

Flight Plot

Page will automatically refresh every two minutes.

Flight plan parsing failed; only flown route is shown


Map Options




Map Legend


Flown Route
Filed Route
Departure Airport
Arrival Airport
Navaid (VOR, NDB)
Fix

Horizontal Profiles

Position Reports

Time Latitude Longitude Heading Altitude Ground
Speed
02-May-18 15:26 33.436424 -112.008227 270 1129ft 0kts
02-May-18 15:27 33.436424 -112.008227 270 1129ft 0kts
02-May-18 15:29 33.436424 -112.008227 270 1129ft 0kts
02-May-18 15:30 33.436424 -112.008227 270 1129ft 0kts
02-May-18 15:31 33.436424 -112.008227 270 1129ft 0kts
02-May-18 15:31 33.436424 -112.008227 270 1129ft 0kts
02-May-18 15:32 33.436424 -112.008227 269 1129ft 0kts
02-May-18 15:33 33.436424 -112.008227 270 1129ft 0kts
02-May-18 15:34 33.436424 -112.008227 270 1129ft 0kts
02-May-18 15:35 33.436424 -112.008227 270 1129ft 0kts
02-May-18 15:36 33.436424 -112.008227 270 1129ft 0kts
02-May-18 15:37 33.436424 -112.008227 270 1129ft 0kts
02-May-18 15:38 33.436424 -112.008227 270 1129ft 0kts
02-May-18 15:39 33.436424 -112.008227 270 1129ft 0kts
02-May-18 15:40 33.436424 -112.008227 270 1129ft 0kts
02-May-18 15:41 33.436424 -112.008227 270 1129ft 0kts
02-May-18 15:42 33.436424 -112.008227 270 1129ft 0kts
02-May-18 15:43 33.436424 -112.008227 270 1129ft 0kts
02-May-18 15:44 33.436424 -112.008226 270 1129ft 0kts
02-May-18 15:45 33.436432 -112.007865 214 1129ft 0kts
02-May-18 15:46 33.436927 -112.007550 209 1128ft 2kts
02-May-18 15:47 33.436972 -112.007347 354 1128ft 0kts
02-May-18 15:48 33.436905 -112.007353 359 1128ft 0kts
02-May-18 15:49 33.437039 -112.007354 359 1128ft 6kts
02-May-18 15:50 33.438128 -112.007359 0 1130ft 0kts
02-May-18 15:51 33.439428 -112.007302 23 1131ft 13kts
02-May-18 15:52 33.439739 -112.001651 90 1131ft 23kts
02-May-18 15:53 33.439730 -111.994315 89 1137ft 23kts
02-May-18 15:54 33.439859 -111.992455 47 1138ft 1kts
02-May-18 15:55 33.440830 -111.999430 269 1135ft 117kts
02-May-18 15:56 33.441483 -112.055913 270 3986ft 207kts
02-May-18 15:57 33.443359 -112.133695 270 7413ft 252kts
02-May-18 15:58 33.480690 -112.196243 356 11060ft 285kts
02-May-18 15:59 33.561906 -112.194813 0 14190ft 317kts
02-May-18 16:00 33.653588 -112.155435 21 16112ft 373kts
02-May-18 16:01 33.751037 -112.106569 21 18707ft 389kts
02-May-18 16:02 33.852531 -112.055686 20 21023ft 404kts
02-May-18 16:03 33.957917 -112.002702 20 23106ft 418kts
02-May-18 16:04 34.066395 -111.948112 18 24990ft 431kts
02-May-18 16:05 34.183133 -111.945534 351 26697ft 431kts
02-May-18 16:06 34.302848 -111.958935 351 28288ft 441kts
02-May-18 16:07 34.424724 -111.972433 350 29700ft 450kts
02-May-18 16:08 34.550042 -111.986278 350 30981ft 459kts
02-May-18 16:09 34.676949 -112.000335 350 32476ft 459kts
02-May-18 16:10 34.802818 -112.014363 350 33944ft 456kts
02-May-18 16:11 34.928107 -112.028477 351 34150ft 453kts
02-May-18 16:12 35.051008 -112.042360 352 34143ft 435kts
02-May-18 16:13 35.170246 -112.055867 352 34144ft 436kts
02-May-18 16:14 35.290492 -112.069522 352 34147ft 436kts
02-May-18 16:15 35.411185 -112.083251 352 34154ft 437kts
02-May-18 16:16 35.532013 -112.096992 352 34161ft 438kts
02-May-18 16:17 35.652967 -112.110793 352 34153ft 439kts
02-May-18 16:18 35.773890 -112.124633 352 34146ft 439kts
02-May-18 16:19 35.894732 -112.138506 352 34140ft 439kts
02-May-18 16:20 36.010689 -112.150777 353 34136ft 439kts
02-May-18 16:21 36.130606 -112.161311 353 34132ft 439kts
02-May-18 16:22 36.251772 -112.172172 353 34130ft 439kts
02-May-18 16:23 36.372903 -112.183083 353 34130ft 439kts
02-May-18 16:24 36.493802 -112.194007 353 34130ft 439kts
02-May-18 16:25 36.615191 -112.205011 353 34129ft 439kts
02-May-18 16:26 36.735616 -112.215955 353 34106ft 439kts
02-May-18 16:27 36.856993 -112.227020 353 34095ft 439kts
02-May-18 16:28 36.978386 -112.238129 353 34103ft 439kts
02-May-18 16:29 37.098721 -112.249181 355 34121ft 434kts
02-May-18 16:30 37.217468 -112.260116 356 34051ft 432kts
02-May-18 16:31 37.337096 -112.271164 356 34045ft 432kts
02-May-18 16:32 37.456289 -112.282209 356 34057ft 433kts
02-May-18 16:33 37.575845 -112.293324 356 34073ft 434kts
02-May-18 16:34 37.695592 -112.302325 2 34084ft 434kts
02-May-18 16:35 37.814770 -112.286691 6 34083ft 434kts
02-May-18 16:36 37.933710 -112.270382 6 34076ft 434kts
02-May-18 16:37 38.052851 -112.253978 6 34072ft 433kts
02-May-18 16:38 38.170924 -112.237664 6 34072ft 434kts
02-May-18 16:39 38.290156 -112.221135 6 34070ft 434kts
02-May-18 16:40 38.409372 -112.204554 6 34059ft 434kts
02-May-18 16:41 38.528552 -112.187922 6 34063ft 434kts
02-May-18 16:42 38.647608 -112.171252 6 34066ft 434kts
02-May-18 16:43 38.766431 -112.154568 6 34065ft 434kts
02-May-18 16:44 38.883498 -112.138449 6 33470ft 415kts
02-May-18 16:45 38.994908 -112.123029 6 32028ft 399kts
02-May-18 16:46 39.101736 -112.108182 7 30215ft 385kts
02-May-18 16:47 39.198073 -112.094755 7 28555ft 372kts
02-May-18 16:48 39.297791 -112.080773 7 26806ft 359kts
02-May-18 16:49 39.393810 -112.067178 6 25091ft 347kts
02-May-18 16:50 39.487290 -112.053911 6 23400ft 335kts
02-May-18 16:51 39.577741 -112.041042 6 21754ft 323kts
02-May-18 16:52 39.665088 -112.028582 6 20149ft 312kts
02-May-18 16:53 39.749385 -112.016526 6 18593ft 302kts
02-May-18 16:54 39.831500 -112.004753 6 17071ft 293kts
02-May-18 16:55 39.911212 -111.993299 6 15596ft 285kts
02-May-18 16:56 39.988817 -111.982382 6 14439ft 281kts
02-May-18 16:57 40.066172 -111.971726 6 13453ft 281kts
02-May-18 16:59 40.142854 -111.961132 5 12478ft 281kts
02-May-18 17:00 40.220355 -111.950399 6 11492ft 280kts
02-May-18 17:01 40.298303 -111.938387 5 10907ft 289kts
02-May-18 17:02 40.377281 -111.929576 4 11022ft 287kts
02-May-18 17:03 40.449517 -111.935069 356 10569ft 252kts
02-May-18 17:04 40.518214 -111.943514 356 9215ft 244kts
02-May-18 17:05 40.582467 -111.950762 352 7958ft 225kts
02-May-18 17:06 40.640036 -111.957519 353 6882ft 191kts
02-May-18 17:07 40.687280 -111.962991 352 5975ft 156kts
02-May-18 17:08 40.725533 -111.967416 352 5232ft 141kts
02-May-18 17:09 40.762874 -111.971798 353 4505ft 141kts
02-May-18 17:10 40.792782 -111.975273 353 4236ft 43kts
02-May-18 17:11 40.795233 -111.976406 320 4236ft 2kts
02-May-18 17:12 40.792658 -111.977408 175 4236ft 17kts
02-May-18 17:13 40.790934 -111.977195 174 4236ft 13kts
02-May-18 17:14 40.789012 -111.979863 175 4236ft 12kts
02-May-18 17:15 40.786992 -111.979573 154 4236ft 3kts
02-May-18 17:16 40.786891 -111.979509 154 4236ft 0kts
02-May-18 17:17 40.786891 -111.979509 154 4236ft 0kts
02-May-18 17:18 40.786891 -111.979509 154 4236ft 0kts
02-May-18 17:19 40.786891 -111.979509 154 4236ft 0kts
02-May-18 17:20 40.786891 -111.979509 154 4236ft 0kts
02-May-18 17:21 40.786891 -111.979509 154 4236ft 0kts
02-May-18 17:22 40.786891 -111.979509 154 4236ft 0kts
02-May-18 17:23 40.786891 -111.979509 154 4236ft 0kts

Navigation Log

Ident Type
Flight plan parsing failed, navigation log unavailable